Time;durP1;ratioP1;P1;durP2;ratioP2;P2;SDS_P1;SDS_P2;PMS_P1;PMS_P2;Temp;Humidity;BMP_temperature;BMP_pressure;BME280_temperature;BME280_humidity;BME280_pressure;Samples;Min_cycle;Max_cycle;Signal;HPM_P1;HPM_P2
2021/12/12 00:00:37;;;;;;;5.30;3.33;;;;;;;;;;5087921;28;20209;-70
2021/12/12 00:03:14;;;;;;;40.47;15.43;;;;;;;;;;5087828;28;20209;-70
2021/12/12 00:05:43;;;;;;;20.03;10.80;;;;;;;;;;5086894;28;20228;-70
2021/12/12 00:08:11;;;;;;;25.17;9.87;;;;;;;;;;5088092;28;20202;-70
2021/12/12 00:10:39;;;;;;;12.57;6.13;;;;;;;;;;5088300;28;20228;-71
2021/12/12 00:13:10;;;;;;;29.60;10.57;;;;;;;;;;5088008;28;20214;-70
2021/12/12 00:15:37;;;;;;;11.67;3.77;;;;;;;;;;5087826;28;20974;-70
2021/12/12 00:18:06;;;;;;;11.63;6.33;;;;;;;;;;5087929;28;20214;-70
2021/12/12 00:20:33;;;;;;;50.87;15.93;;;;;;;;;;5087993;28;20210;-70
2021/12/12 00:23:01;;;;;;;23.17;11.10;;;;;;;;;;5088229;28;20221;-69
2021/12/12 00:25:30;;;;;;;5.10;3.10;;;;;;;;;;5088030;28;20699;-70
2021/12/12 00:27:58;;;;;;;2.53;2.27;;;;;;;;;;5087651;28;20275;-70
2021/12/12 00:30:25;;;;;;;14.87;6.97;;;;;;;;;;5087461;28;20807;-70
2021/12/12 00:32:53;;;;;;;13.33;5.83;;;;;;;;;;5087402;28;20700;-70
2021/12/12 00:35:23;;;;;;;23.13;5.40;;;;;;;;;;5087837;28;20294;-70
2021/12/12 00:37:51;;;;;;;15.80;4.70;;;;;;;;;;5087714;28;20220;-70
2021/12/12 00:40:22;;;;;;;13.33;4.10;;;;;;;;;;5087664;28;20708;-70
2021/12/12 00:42:49;;;;;;;2.53;1.47;;;;;;;;;;5087229;28;20260;-70
2021/12/12 00:45:17;;;;;;;1.97;1.43;;;;;;;;;;5086806;28;20218;-70
2021/12/12 00:47:44;;;;;;;1.50;1.40;;;;;;;;;;5086978;28;20721;-70
2021/12/12 00:50:13;;;;;;;2.10;1.23;;;;;;;;;;5087058;28;20236;-69
2021/12/12 00:52:43;;;;;;;1.80;1.03;;;;;;;;;;5087052;28;20229;-70
2021/12/12 00:55:11;;;;;;;5.30;1.30;;;;;;;;;;5086879;28;20214;-71
2021/12/12 00:57:38;;;;;;;1.20;0.90;;;;;;;;;;5086629;28;20217;-69
2021/12/12 01:00:06;;;;;;;5.73;1.70;;;;;;;;;;5086154;28;20214;-70
2021/12/12 01:02:33;;;;;;;14.50;2.67;;;;;;;;;;5086848;28;20233;-70
2021/12/12 01:05:02;;;;;;;1.37;0.80;;;;;;;;;;5086619;28;20217;-69
2021/12/12 01:07:31;;;;;;;5.13;1.00;;;;;;;;;;5086226;28;20634;-70
2021/12/12 01:10:04;;;;;;;1.20;1.10;;;;;;;;;;5086469;28;20210;-70
2021/12/12 01:12:32;;;;;;;4.50;1.10;;;;;;;;;;5086421;28;20211;-70
2021/12/12 01:15:01;;;;;;;1.13;1.03;;;;;;;;;;5085820;28;20317;-70
2021/12/12 01:17:34;;;;;;;4.67;1.27;;;;;;;;;;5066033;28;20213;-72
2021/12/12 01:20:03;;;;;;;0.90;0.90;;;;;;;;;;5082908;28;20249;-71
2021/12/12 01:22:34;;;;;;;2.37;1.33;;;;;;;;;;5086174;28;20226;-70
2021/12/12 01:25:07;;;;;;;0.80;0.80;;;;;;;;;;5085342;28;20303;-69
2021/12/12 01:27:34;;;;;;;1.40;1.10;;;;;;;;;;5086225;28;20223;-72
2021/12/12 01:30:02;;;;;;;1.30;1.27;;;;;;;;;;5085507;28;20237;-70
2021/12/12 01:32:32;;;;;;;2.37;1.07;;;;;;;;;;5086234;28;20210;-70
2021/12/12 01:35:00;;;;;;;0.93;0.93;;;;;;;;;;5090131;28;20205;-70
2021/12/12 01:37:38;;;;;;;6.57;1.13;;;;;;;;;;5090299;28;20218;-70
2021/12/12 01:40:10;;;;;;;1.47;0.90;;;;;;;;;;5090149;28;20645;-70
2021/12/12 01:42:39;;;;;;;1.10;1.00;;;;;;;;;;5075954;28;20221;-70
2021/12/12 01:45:08;;;;;;;1.03;0.90;;;;;;;;;;5069287;28;20210;-70
2021/12/12 01:47:38;;;;;;;0.87;0.77;;;;;;;;;;5069706;28;20214;-70
2021/12/12 01:50:09;;;;;;;3.80;0.90;;;;;;;;;;5069885;28;20267;-69
2021/12/12 01:52:36;;;;;;;1.33;1.23;;;;;;;;;;5088238;28;20209;-69
2021/12/12 01:55:08;;;;;;;1.50;0.80;;;;;;;;;;5089924;28;20229;-69
2021/12/12 01:57:37;;;;;;;1.97;1.30;;;;;;;;;;5089689;28;20213;-69
2021/12/12 02:00:10;;;;;;;1.20;1.20;;;;;;;;;;5089714;28;20585;-69
2021/12/12 02:02:37;;;;;;;1.60;0.80;;;;;;;;;;5089889;28;20237;-69
2021/12/12 02:05:07;;;;;;;1.20;1.10;;;;;;;;;;5089637;28;20264;-69
2021/12/12 02:07:36;;;;;;;1.70;0.77;;;;;;;;;;5089686;28;20206;-69
2021/12/12 02:10:06;;;;;;;3.03;1.10;;;;;;;;;;5089704;28;20210;-69
2021/12/12 02:12:33;;;;;;;2.00;1.17;;;;;;;;;;5088940;28;20202;-69
2021/12/12 02:15:02;;;;;;;4.87;1.30;;;;;;;;;;5089479;28;20269;-70
2021/12/12 02:17:35;;;;;;;1.93;1.03;;;;;;;;;;5089960;28;20207;-69
2021/12/12 02:20:13;;;;;;;1.33;1.20;;;;;;;;;;5090206;28;20292;-69
2021/12/12 02:22:56;;;;;;;1.57;1.47;;;;;;;;;;5089462;28;20221;-68
2021/12/12 02:36:25;;;;;;;1.63;0.97;;;;;;;;;;5089667;28;20229;-69
2021/12/12 02:38:54;;;;;;;1.17;1.03;;;;;;;;;;5089560;28;20706;-69
2021/12/12 02:41:23;;;;;;;5.60;1.80;;;;;;;;;;5079719;28;20213;-69
2021/12/12 02:43:51;;;;;;;1.40;1.30;;;;;;;;;;5084575;28;20229;-69
2021/12/12 02:46:21;;;;;;;2.43;1.07;;;;;;;;;;5081452;28;20210;-69
2021/12/12 02:48:51;;;;;;;2.33;1.33;;;;;;;;;;5083390;28;20675;-68
2021/12/12 02:51:19;;;;;;;2.83;1.33;;;;;;;;;;5081366;28;20255;-70
2021/12/12 02:53:48;;;;;;;6.13;1.53;;;;;;;;;;5080623;28;20565;-69
2021/12/12 02:56:18;;;;;;;1.70;1.50;;;;;;;;;;5089776;28;20210;-69
2021/12/12 02:58:45;;;;;;;1.67;1.57;;;;;;;;;;5082510;28;20210;-69
2021/12/12 03:01:19;;;;;;;1.50;1.40;;;;;;;;;;5079327;28;20211;-69
2021/12/12 03:03:47;;;;;;;2.17;1.60;;;;;;;;;;5078906;28;20232;-69
2021/12/12 03:06:17;;;;;;;1.00;1.00;;;;;;;;;;5084503;28;20210;-69
2021/12/12 03:08:47;;;;;;;3.30;1.97;;;;;;;;;;5080129;28;20291;-69
2021/12/12 03:11:14;;;;;;;1.40;1.40;;;;;;;;;;5077666;28;20300;-69
2021/12/12 03:13:44;;;;;;;3.73;1.43;;;;;;;;;;5082961;28;20198;-69
2021/12/12 03:16:11;;;;;;;1.70;1.53;;;;;;;;;;5082418;28;20263;-69
2021/12/12 03:18:41;;;;;;;1.57;1.47;;;;;;;;;;5078469;28;20287;-69
2021/12/12 03:21:15;;;;;;;1.83;1.53;;;;;;;;;;5080001;28;20205;-70
2021/12/12 03:23:42;;;;;;;1.67;1.57;;;;;;;;;;5080995;28;20222;-69
2021/12/12 03:26:10;;;;;;;1.40;1.30;;;;;;;;;;5081545;28;20666;-70
2021/12/12 03:28:38;;;;;;;3.33;2.23;;;;;;;;;;5077792;28;20718;-70
2021/12/12 03:31:08;;;;;;;1.63;1.30;;;;;;;;;;5079766;28;20230;-70
2021/12/12 03:33:35;;;;;;;2.23;1.83;;;;;;;;;;5079822;28;20218;-70
2021/12/12 03:36:07;;;;;;;4.50;1.83;;;;;;;;;;5082655;28;20570;-70
2021/12/12 03:38:35;;;;;;;8.83;2.07;;;;;;;;;;5088450;28;20199;-70
2021/12/12 03:41:05;;;;;;;1.53;1.43;;;;;;;;;;5090586;28;20300;-70
2021/12/12 03:43:32;;;;;;;2.40;1.37;;;;;;;;;;5092329;28;20232;-70
2021/12/12 03:45:59;;;;;;;1.87;1.30;;;;;;;;;;5092486;28;20667;-70
2021/12/12 03:48:29;;;;;;;5.97;2.73;;;;;;;;;;5092221;28;20235;-71
2021/12/12 03:50:59;;;;;;;2.30;1.83;;;;;;;;;;5076613;28;20256;-70
2021/12/12 03:53:27;;;;;;;3.43;2.20;;;;;;;;;;5072016;28;20214;-70
2021/12/12 03:55:54;;;;;;;3.37;1.60;;;;;;;;;;5089635;28;20213;-70
2021/12/12 03:58:21;;;;;;;2.00;1.73;;;;;;;;;;5092039;28;20646;-70
2021/12/12 04:00:50;;;;;;;1.60;0.90;;;;;;;;;;5092001;28;20233;-70
2021/12/12 04:03:19;;;;;;;3.03;1.43;;;;;;;;;;5092276;28;20291;-71
2021/12/12 04:05:48;;;;;;;1.33;1.33;;;;;;;;;;5092338;28;20209;-70
2021/12/12 04:08:15;;;;;;;5.47;1.67;;;;;;;;;;5092418;28;20210;-68
2021/12/12 04:10:43;;;;;;;2.67;1.57;;;;;;;;;;5091927;28;20263;-68
2021/12/12 04:13:10;;;;;;;2.53;1.50;;;;;;;;;;5091732;28;20206;-68
2021/12/12 04:15:37;;;;;;;2.20;1.47;;;;;;;;;;5091878;28;20216;-70
2021/12/12 04:18:04;;;;;;;3.40;1.60;;;;;;;;;;5091748;28;20218;-70
2021/12/12 04:20:33;;;;;;;2.90;1.27;;;;;;;;;;5091663;28;20217;-71
2021/12/12 04:23:02;;;;;;;1.00;1.00;;;;;;;;;;5091868;28;20255;-70
2021/12/12 04:25:29;;;;;;;1.53;1.53;;;;;;;;;;5091806;28;20206;-70
2021/12/12 04:27:56;;;;;;;1.83;1.00;;;;;;;;;;5091685;28;20257;-70
2021/12/12 04:30:24;;;;;;;5.00;1.60;;;;;;;;;;5090994;28;20287;-69
2021/12/12 04:32:52;;;;;;;1.00;1.00;;;;;;;;;;5090826;28;20318;-70
2021/12/12 04:35:21;;;;;;;1.50;1.40;;;;;;;;;;5091083;28;20255;-70
2021/12/12 04:37:48;;;;;;;1.27;1.17;;;;;;;;;;5091374;28;20210;-70
2021/12/12 04:40:18;;;;;;;1.67;1.40;;;;;;;;;;5090724;28;20217;-70
2021/12/12 04:42:47;;;;;;;0.60;0.60;;;;;;;;;;5090700;28;20736;-70
2021/12/12 04:45:18;;;;;;;2.73;1.80;;;;;;;;;;5087802;28;20255;-70
2021/12/12 04:50:37;;;;;;;1.17;1.17;;;;;;;;;;5090758;28;20254;-68
2021/12/12 04:53:07;;;;;;;5.63;1.67;;;;;;;;;;5090233;28;20676;-67
2021/12/12 04:55:39;;;;;;;6.27;1.10;;;;;;;;;;5090170;28;20206;-67
2021/12/12 04:58:07;;;;;;;5.70;1.17;;;;;;;;;;5090770;28;20434;-67
2021/12/12 05:00:36;;;;;;;1.00;0.97;;;;;;;;;;5090037;28;20216;-68
2021/12/12 05:03:08;;;;;;;1.27;1.17;;;;;;;;;;5090181;28;20229;-67
2021/12/12 05:05:37;;;;;;;1.30;1.20;;;;;;;;;;5089504;28;20221;-68
2021/12/12 05:08:08;;;;;;;1.10;1.10;;;;;;;;;;5090243;28;20214;-69
2021/12/12 05:10:39;;;;;;;1.23;1.10;;;;;;;;;;5085577;28;20202;-68
2021/12/12 05:13:08;;;;;;;1.47;1.27;;;;;;;;;;5069765;28;20256;-68
2021/12/12 05:15:37;;;;;;;3.80;1.10;;;;;;;;;;5069841;28;20213;-67
2021/12/12 05:18:05;;;;;;;1.20;1.13;;;;;;;;;;5089148;28;20226;-68
2021/12/12 05:20:33;;;;;;;1.30;1.20;;;;;;;;;;5090058;28;20236;-68
2021/12/12 05:23:02;;;;;;;1.77;1.30;;;;;;;;;;5089814;28;20225;-67
2021/12/12 05:25:32;;;;;;;5.10;1.43;;;;;;;;;;5089726;28;20209;-68
2021/12/12 05:28:02;;;;;;;1.57;1.47;;;;;;;;;;5089661;28;20217;-68
2021/12/12 05:30:30;;;;;;;2.83;0.97;;;;;;;;;;5090204;28;20248;-68
2021/12/12 05:32:59;;;;;;;4.53;1.43;;;;;;;;;;5089587;28;20230;-67
2021/12/12 05:35:28;;;;;;;3.50;1.30;;;;;;;;;;5089100;28;20580;-68
2021/12/12 05:37:56;;;;;;;1.00;1.00;;;;;;;;;;5090319;28;20205;-69
2021/12/12 05:40:25;;;;;;;3.27;1.30;;;;;;;;;;5090272;28;20210;-70
2021/12/12 05:42:52;;;;;;;1.23;1.23;;;;;;;;;;5090217;28;20226;-70
2021/12/12 05:45:21;;;;;;;1.10;1.10;;;;;;;;;;5090027;28;20208;-70
2021/12/12 05:47:49;;;;;;;0.90;0.90;;;;;;;;;;5089965;28;20213;-70
2021/12/12 05:50:17;;;;;;;1.60;1.13;;;;;;;;;;5089599;28;20209;-70
2021/12/12 05:52:45;;;;;;;2.30;1.10;;;;;;;;;;5088110;28;20571;-69
2021/12/12 05:55:13;;;;;;;3.37;2.00;;;;;;;;;;5089718;28;20263;-70
2021/12/12 05:57:43;;;;;;;3.47;1.47;;;;;;;;;;5089628;28;20209;-70
2021/12/12 06:00:14;;;;;;;4.50;1.37;;;;;;;;;;5088952;28;20226;-70
2021/12/12 06:02:42;;;;;;;1.03;1.03;;;;;;;;;;5089013;28;20222;-70
2021/12/12 06:05:10;;;;;;;7.53;1.70;;;;;;;;;;5088410;28;20210;-69
2021/12/12 06:07:37;;;;;;;0.83;0.83;;;;;;;;;;5087896;28;20229;-70
2021/12/12 06:10:06;;;;;;;6.87;1.60;;;;;;;;;;5089837;28;20206;-70
2021/12/12 06:12:34;;;;;;;0.87;0.80;;;;;;;;;;5089841;28;20209;-70
2021/12/12 06:15:02;;;;;;;0.83;0.83;;;;;;;;;;5089463;28;20247;-70
2021/12/12 06:17:29;;;;;;;0.93;0.93;;;;;;;;;;5089295;28;20214;-70
2021/12/12 06:19:58;;;;;;;1.20;1.20;;;;;;;;;;5089771;28;20228;-70
2021/12/12 06:22:26;;;;;;;0.97;0.97;;;;;;;;;;5089777;28;20213;-70
2021/12/12 06:24:54;;;;;;;1.00;1.00;;;;;;;;;;5089653;28;20210;-70
2021/12/12 06:27:21;;;;;;;3.10;1.33;;;;;;;;;;5089495;28;20703;-70
2021/12/12 06:29:50;;;;;;;0.83;0.83;;;;;;;;;;5088478;28;20295;-70
2021/12/12 06:32:17;;;;;;;0.90;0.90;;;;;;;;;;5089443;28;20557;-70
2021/12/12 06:34:45;;;;;;;2.67;1.60;;;;;;;;;;5089533;28;20205;-70
2021/12/12 06:37:14;;;;;;;2.23;1.80;;;;;;;;;;5089274;28;20202;-71
2021/12/12 06:39:41;;;;;;;1.57;1.37;;;;;;;;;;5089746;28;20214;-70
2021/12/12 06:42:09;;;;;;;1.00;1.00;;;;;;;;;;5089351;28;20199;-69
2021/12/12 06:44:38;;;;;;;1.13;1.00;;;;;;;;;;5089108;28;20619;-69
2021/12/12 06:47:05;;;;;;;1.27;1.20;;;;;;;;;;5089071;28;20217;-68
2021/12/12 06:49:32;;;;;;;1.00;1.00;;;;;;;;;;5088951;28;20314;-68
2021/12/12 06:52:01;;;;;;;3.63;1.10;;;;;;;;;;5089186;28;20213;-68
2021/12/12 06:54:30;;;;;;;0.73;0.63;;;;;;;;;;5088894;28;20198;-68
2021/12/12 06:56:59;;;;;;;1.43;1.33;;;;;;;;;;5089193;28;20643;-68
2021/12/12 06:59:27;;;;;;;2.87;1.27;;;;;;;;;;5088944;28;20214;-68
2021/12/12 07:01:55;;;;;;;0.80;0.80;;;;;;;;;;5088340;28;20545;-69
2021/12/12 07:04:22;;;;;;;1.10;1.10;;;;;;;;;;5088263;28;20229;-69
2021/12/12 07:06:50;;;;;;;1.47;0.80;;;;;;;;;;5088470;28;20663;-69
2021/12/12 07:09:18;;;;;;;1.00;1.00;;;;;;;;;;5088763;28;20209;-69
2021/12/12 07:11:46;;;;;;;3.00;0.90;;;;;;;;;;5077203;28;20211;-67
2021/12/12 07:14:15;;;;;;;2.20;1.13;;;;;;;;;;5069592;28;20207;-69
2021/12/12 07:16:42;;;;;;;0.97;0.97;;;;;;;;;;5087586;28;20225;-68
2021/12/12 07:19:10;;;;;;;1.50;1.40;;;;;;;;;;5092197;28;20206;-68
2021/12/12 07:21:38;;;;;;;4.47;1.30;;;;;;;;;;5081860;28;20262;-70
2021/12/12 07:24:06;;;;;;;3.63;2.07;;;;;;;;;;5092703;28;20312;-69
2021/12/12 07:26:33;;;;;;;1.63;1.50;;;;;;;;;;5092909;28;20297;-69
2021/12/12 07:29:02;;;;;;;2.33;1.10;;;;;;;;;;5092336;28;20214;-70
2021/12/12 07:31:33;;;;;;;3.50;1.73;;;;;;;;;;5092901;28;20251;-68
2021/12/12 07:34:01;;;;;;;1.20;1.20;;;;;;;;;;5092926;28;20247;-70
2021/12/12 07:36:31;;;;;;;3.17;2.27;;;;;;;;;;5092775;28;20206;-70
2021/12/12 07:39:00;;;;;;;1.10;1.10;;;;;;;;;;5092296;28;20686;-69
2021/12/12 07:41:29;;;;;;;1.83;1.67;;;;;;;;;;5092448;28;20216;-70
2021/12/12 07:43:56;;;;;;;2.20;2.00;;;;;;;;;;5092674;28;20234;-66
2021/12/12 07:46:25;;;;;;;3.33;1.37;;;;;;;;;;5092272;28;20580;-68
2021/12/12 07:48:53;;;;;;;1.37;1.23;;;;;;;;;;5092591;28;20214;-68
2021/12/12 07:51:22;;;;;;;2.00;1.90;;;;;;;;;;5091666;28;20210;-68
2021/12/12 07:53:52;;;;;;;1.77;1.23;;;;;;;;;;5091298;28;20581;-68
2021/12/12 07:56:19;;;;;;;1.47;1.40;;;;;;;;;;5077624;28;20209;-68
2021/12/12 07:58:47;;;;;;;2.00;1.63;;;;;;;;;;5085328;28;20216;-68
2021/12/12 08:01:14;;;;;;;1.63;1.20;;;;;;;;;;5088501;28;20218;-69
2021/12/12 08:03:43;;;;;;;1.07;1.07;;;;;;;;;;5091621;28;20238;-69
2021/12/12 08:06:13;;;;;;;2.07;1.97;;;;;;;;;;5092093;28;20230;-68
2021/12/12 08:08:41;;;;;;;1.40;1.40;;;;;;;;;;5091223;28;20242;-68
2021/12/12 08:11:08;;;;;;;0.90;0.90;;;;;;;;;;5088803;28;20210;-68
2021/12/12 08:13:36;;;;;;;2.17;1.50;;;;;;;;;;5080326;28;20680;-69
2021/12/12 08:16:06;;;;;;;1.37;1.23;;;;;;;;;;5090726;28;20676;-69
2021/12/12 08:18:33;;;;;;;1.50;1.40;;;;;;;;;;5091731;28;20202;-68
2021/12/12 08:21:03;;;;;;;1.63;1.57;;;;;;;;;;5091618;28;20234;-68
2021/12/12 08:23:30;;;;;;;1.50;1.50;;;;;;;;;;5091635;28;20226;-68
2021/12/12 08:25:58;;;;;;;2.20;1.60;;;;;;;;;;5089548;28;20222;-69
2021/12/12 08:28:26;;;;;;;2.37;2.03;;;;;;;;;;5092231;28;20210;-69
2021/12/12 08:30:53;;;;;;;2.00;1.60;;;;;;;;;;5091364;28;20607;-68
2021/12/12 08:33:20;;;;;;;1.50;1.40;;;;;;;;;;5091475;28;20226;-69
2021/12/12 08:35:47;;;;;;;3.13;1.60;;;;;;;;;;5091821;28;20547;-68
2021/12/12 08:38:16;;;;;;;1.30;1.23;;;;;;;;;;5091742;28;20206;-69
2021/12/12 08:40:47;;;;;;;1.87;1.67;;;;;;;;;;5077375;28;20199;-68
2021/12/12 08:43:16;;;;;;;3.80;1.60;;;;;;;;;;5091092;28;20213;-68
2021/12/12 08:45:44;;;;;;;1.90;1.67;;;;;;;;;;5090667;28;20206;-68
2021/12/12 08:48:12;;;;;;;4.53;1.67;;;;;;;;;;5085211;28;20206;-68
2021/12/12 08:50:40;;;;;;;3.43;1.97;;;;;;;;;;5090557;28;20207;-68
2021/12/12 08:53:07;;;;;;;1.70;1.60;;;;;;;;;;5090640;28;20214;-68
2021/12/12 08:55:37;;;;;;;3.03;2.10;;;;;;;;;;5088812;28;20606;-69
2021/12/12 08:58:14;;;;;;;1.90;1.80;;;;;;;;;;5080521;28;20210;-68
2021/12/12 09:00:42;;;;;;;2.20;2.07;;;;;;;;;;5083458;28;20210;-68
2021/12/12 09:03:10;;;;;;;3.00;2.00;;;;;;;;;;5087251;28;20627;-70
2021/12/12 09:05:40;;;;;;;1.73;1.67;;;;;;;;;;5088406;28;20589;-70
2021/12/12 09:08:09;;;;;;;5.43;2.00;;;;;;;;;;5084772;28;20551;-69
2021/12/12 09:10:40;;;;;;;5.77;2.20;;;;;;;;;;5076005;28;20293;-70
2021/12/12 09:13:08;;;;;;;1.53;1.43;;;;;;;;;;5089688;28;20202;-70
2021/12/12 09:15:37;;;;;;;7.60;1.83;;;;;;;;;;5090045;28;20202;-70
2021/12/12 09:18:06;;;;;;;4.17;1.53;;;;;;;;;;5089810;28;20210;-67
2021/12/12 09:20:45;;;;;;;2.07;1.47;;;;;;;;;;5089524;28;20542;-70
2021/12/12 09:23:15;;;;;;;2.00;1.67;;;;;;;;;;5089635;28;20206;-69
2021/12/12 09:25:50;;;;;;;2.30;1.43;;;;;;;;;;5090132;28;20224;-67
2021/12/12 09:28:22;;;;;;;2.27;1.53;;;;;;;;;;5089666;28;20751;-69
2021/12/12 09:30:50;;;;;;;2.50;1.40;;;;;;;;;;5089057;28;20239;-72
2021/12/12 09:33:20;;;;;;;4.90;1.43;;;;;;;;;;5089161;28;20227;-67
2021/12/12 09:35:50;;;;;;;1.33;1.23;;;;;;;;;;5087500;28;20203;-69
2021/12/12 09:38:20;;;;;;;2.03;1.47;;;;;;;;;;5070089;28;20214;-66
2021/12/12 09:41:07;;;;;;;1.87;1.77;;;;;;;;;;5079673;28;20563;-68
2021/12/12 09:43:41;;;;;;;1.77;1.30;;;;;;;;;;5090083;28;20283;-68
2021/12/12 09:46:18;;;;;;;2.67;1.80;;;;;;;;;;5090272;28;20197;-69
2021/12/12 09:52:24;;;;;;;2.13;1.87;;;;;;;;;;5086598;28;20241;-68
2021/12/12 09:54:56;;;;;;;3.00;1.10;;;;;;;;;;5014540;28;20208;-68
2021/12/12 09:57:26;;;;;;;5.00;1.80;;;;;;;;;;5090027;28;20275;-68
2021/12/12 10:00:00;;;;;;;2.47;1.53;;;;;;;;;;5089650;28;20256;-69
2021/12/12 10:02:30;;;;;;;1.30;1.20;;;;;;;;;;5088445;28;20202;-68
2021/12/12 10:05:05;;;;;;;1.83;1.73;;;;;;;;;;5089493;28;20590;-68
2021/12/12 10:07:37;;;;;;;2.00;1.77;;;;;;;;;;5089622;28;20206;-69
2021/12/12 10:10:08;;;;;;;2.53;1.60;;;;;;;;;;5089727;28;20206;-69
2021/12/12 10:12:40;;;;;;;6.47;2.20;;;;;;;;;;5089705;28;20245;-70
2021/12/12 10:15:11;;;;;;;1.50;1.50;;;;;;;;;;5088999;28;20223;-68
2021/12/12 10:17:40;;;;;;;2.80;2.00;;;;;;;;;;5079640;28;20446;-67
2021/12/12 10:20:10;;;;;;;2.00;1.80;;;;;;;;;;5069902;28;20217;-68
2021/12/12 10:22:43;;;;;;;6.83;2.00;;;;;;;;;;5083648;28;20205;-69
2021/12/12 10:25:13;;;;;;;2.10;1.90;;;;;;;;;;5089469;28;20235;-69
2021/12/12 10:27:45;;;;;;;2.73;1.57;;;;;;;;;;5089560;28;20237;-65
2021/12/12 10:30:14;;;;;;;8.67;2.20;;;;;;;;;;5085099;28;20775;-68
2021/12/12 10:32:47;;;;;;;4.40;1.90;;;;;;;;;;5088296;28;20250;-70
2021/12/12 10:35:17;;;;;;;2.60;1.73;;;;;;;;;;5088318;28;20676;-70
2021/12/12 10:37:50;;;;;;;2.07;1.83;;;;;;;;;;5088260;28;20202;-71
2021/12/12 10:40:22;;;;;;;2.43;1.50;;;;;;;;;;5066565;28;20214;-74
2021/12/12 10:42:52;;;;;;;4.93;1.43;;;;;;;;;;5066970;28;20205;-70
2021/12/12 10:45:22;;;;;;;1.60;1.50;;;;;;;;;;5064733;28;20244;-71
2021/12/12 10:47:54;;;;;;;3.70;2.00;;;;;;;;;;5067953;28;20721;-69
2021/12/12 10:50:24;;;;;;;2.80;1.73;;;;;;;;;;5081894;28;20759;-70
2021/12/12 10:52:55;;;;;;;5.57;2.07;;;;;;;;;;5072956;28;20217;-70
2021/12/12 10:55:24;;;;;;;1.97;1.80;;;;;;;;;;5063906;28;20234;-70
2021/12/12 10:57:56;;;;;;;0.97;0.97;;;;;;;;;;5083357;28;20215;-71
2021/12/12 11:00:25;;;;;;;6.23;1.70;;;;;;;;;;5082740;28;20293;-71
2021/12/12 11:02:56;;;;;;;1.43;1.40;;;;;;;;;;5084423;28;20672;-71
2021/12/12 11:05:27;;;;;;;4.60;1.77;;;;;;;;;;5070956;28;20223;-72
2021/12/12 11:07:56;;;;;;;4.93;1.80;;;;;;;;;;5081049;28;20320;-71
2021/12/12 11:10:24;;;;;;;1.93;1.80;;;;;;;;;;5083754;28;20206;-72
2021/12/12 11:12:56;;;;;;;2.00;1.73;;;;;;;;;;5080021;28;20255;-72
2021/12/12 11:15:28;;;;;;;9.63;3.40;;;;;;;;;;5083807;28;20739;-71
2021/12/12 11:18:00;;;;;;;5.10;2.97;;;;;;;;;;5083951;28;20217;-71
2021/12/12 11:20:28;;;;;;;7.70;2.97;;;;;;;;;;5083931;28;20205;-71
2021/12/12 11:22:57;;;;;;;6.53;3.33;;;;;;;;;;5084712;28;20217;-72
2021/12/12 11:25:26;;;;;;;8.53;3.93;;;;;;;;;;5083894;28;20230;-72
2021/12/12 11:27:58;;;;;;;5.27;2.80;;;;;;;;;;5083934;28;20252;-72
2021/12/12 11:30:27;;;;;;;4.77;3.43;;;;;;;;;;5082645;28;20903;-70
2021/12/12 11:32:55;;;;;;;6.43;3.57;;;;;;;;;;5084126;28;20229;-72
2021/12/12 11:35:24;;;;;;;6.13;3.90;;;;;;;;;;5082477;28;20215;-71
2021/12/12 11:37:53;;;;;;;5.20;3.23;;;;;;;;;;5079162;28;20267;-72
2021/12/12 11:40:22;;;;;;;7.23;4.00;;;;;;;;;;5082891;28;20628;-70
2021/12/12 11:42:50;;;;;;;5.53;3.73;;;;;;;;;;5083922;28;20207;-63
2021/12/12 11:45:25;;;;;;;6.47;3.93;;;;;;;;;;5084023;28;20712;-65
2021/12/12 11:47:59;;;;;;;5.37;2.47;;;;;;;;;;5082281;28;20237;-67
2021/12/12 11:50:31;;;;;;;3.47;2.13;;;;;;;;;;5084147;28;20743;-64
2021/12/12 11:53:00;;;;;;;7.37;3.20;;;;;;;;;;5080733;28;20206;-66
2021/12/12 11:55:29;;;;;;;3.10;2.33;;;;;;;;;;5083929;28;20198;-66
2021/12/12 11:58:01;;;;;;;6.77;2.17;;;;;;;;;;5081736;28;20205;-66
2021/12/12 12:00:33;;;;;;;4.73;2.00;;;;;;;;;;5084535;28;20214;-65
2021/12/12 12:03:11;;;;;;;3.13;2.40;;;;;;;;;;5086974;28;20202;-70
2021/12/12 12:05:39;;;;;;;5.37;2.27;;;;;;;;;;5087942;28;20234;-78
2021/12/12 12:08:12;;;;;;;2.90;2.27;;;;;;;;;;5087570;28;20941;-69
2021/12/12 12:10:43;;;;;;;3.97;1.83;;;;;;;;;;5087891;28;20218;-70
2021/12/12 12:13:18;;;;;;;4.53;2.70;;;;;;;;;;5086262;28;20214;-70
2021/12/12 12:15:50;;;;;;;8.73;2.17;;;;;;;;;;5082268;28;20657;-71
2021/12/12 12:18:23;;;;;;;4.00;2.73;;;;;;;;;;5087980;28;20214;-71
2021/12/12 12:20:53;;;;;;;3.87;2.77;;;;;;;;;;5087516;28;20407;-72
2021/12/12 12:23:32;;;;;;;3.20;1.90;;;;;;;;;;5086767;28;20229;-71
2021/12/12 12:28:51;;;;;;;8.57;2.30;;;;;;;;;;5086889;28;20212;-71
2021/12/12 12:31:33;;;;;;;6.03;3.37;;;;;;;;;;5086476;28;20238;-66
2021/12/12 12:34:19;;;;;;;3.47;2.70;;;;;;;;;;5087142;28;20237;-71
2021/12/12 12:37:04;;;;;;;6.53;3.33;;;;;;;;;;5086919;28;20194;-67
2021/12/12 12:39:55;;;;;;;3.80;2.33;;;;;;;;;;5086589;28;20225;-68
2021/12/12 12:42:42;;;;;;;2.97;2.50;;;;;;;;;;5086242;28;20203;-70
2021/12/12 12:45:28;;;;;;;4.97;2.70;;;;;;;;;;5084754;28;20678;-70
2021/12/12 12:48:25;;;;;;;2.00;1.90;;;;;;;;;;5076223;28;20733;-70
2021/12/12 12:51:03;;;;;;;2.77;1.63;;;;;;;;;;5086397;28;20205;-70
2021/12/12 12:53:39;;;;;;;3.50;2.17;;;;;;;;;;5086456;28;20225;-70
2021/12/12 12:56:09;;;;;;;4.07;2.70;;;;;;;;;;5086056;28;20210;-70
2021/12/12 12:58:40;;;;;;;4.80;2.53;;;;;;;;;;5083256;28;20206;-70
2021/12/12 13:01:13;;;;;;;2.63;1.70;;;;;;;;;;5086244;28;20210;-71
2021/12/12 13:03:49;;;;;;;2.30;1.97;;;;;;;;;;5085686;28;20221;-71
2021/12/12 13:06:31;;;;;;;2.53;2.27;;;;;;;;;;5079978;28;20233;-71
2021/12/12 13:09:17;;;;;;;2.23;2.13;;;;;;;;;;5048448;28;20230;-71
2021/12/12 13:11:56;;;;;;;5.70;2.90;;;;;;;;;;5081012;28;20728;-71
2021/12/12 13:14:26;;;;;;;3.63;2.77;;;;;;;;;;5078584;28;20210;-71
2021/12/12 13:16:56;;;;;;;5.13;2.70;;;;;;;;;;5069154;28;20268;-71
2021/12/12 13:19:30;;;;;;;5.53;2.53;;;;;;;;;;5077584;28;20211;-70
2021/12/12 13:22:07;;;;;;;4.03;3.00;;;;;;;;;;5077204;28;20764;-69
2021/12/12 13:24:37;;;;;;;4.67;3.40;;;;;;;;;;5083268;28;20209;-71
2021/12/12 13:27:16;;;;;;;2.17;1.97;;;;;;;;;;5086105;28;20210;-70
2021/12/12 13:29:51;;;;;;;4.37;2.60;;;;;;;;;;5084228;28;20767;-71
2021/12/12 13:32:27;;;;;;;2.97;2.67;;;;;;;;;;5084754;28;20213;-70
2021/12/12 13:34:58;;;;;;;4.27;2.70;;;;;;;;;;5084940;28;20213;-69
2021/12/12 13:37:28;;;;;;;2.90;2.47;;;;;;;;;;5065638;28;20691;-70
2021/12/12 13:40:03;;;;;;;1.60;1.50;;;;;;;;;;5065531;28;20680;-70
2021/12/12 13:42:39;;;;;;;1.93;1.83;;;;;;;;;;5084802;28;20290;-69
2021/12/12 13:45:11;;;;;;;12.10;2.97;;;;;;;;;;5085543;28;20700;-70
2021/12/12 13:47:43;;;;;;;4.13;2.40;;;;;;;;;;5066450;28;20222;-73
2021/12/12 13:50:14;;;;;;;3.37;2.40;;;;;;;;;;5080158;28;20226;-68
2021/12/12 13:52:47;;;;;;;3.20;2.23;;;;;;;;;;5080441;28;20213;-70
2021/12/12 13:55:16;;;;;;;2.60;2.27;;;;;;;;;;5084416;28;20210;-71
2021/12/12 13:57:51;;;;;;;2.50;1.57;;;;;;;;;;5085324;28;20206;-71
2021/12/12 14:00:19;;;;;;;2.83;1.77;;;;;;;;;;5085733;28;20214;-73
2021/12/12 14:02:48;;;;;;;1.93;1.67;;;;;;;;;;5083900;28;20298;-71
2021/12/12 14:05:18;;;;;;;2.37;2.17;;;;;;;;;;5085549;28;20308;-71
2021/12/12 14:07:47;;;;;;;2.87;1.83;;;;;;;;;;5085876;28;20492;-70
2021/12/12 14:10:19;;;;;;;4.73;1.73;;;;;;;;;;5076461;28;20210;-69
2021/12/12 14:12:49;;;;;;;2.03;1.93;;;;;;;;;;5084713;28;20211;-70
2021/12/12 14:15:19;;;;;;;2.03;1.93;;;;;;;;;;5080591;28;20207;-72
2021/12/12 14:17:49;;;;;;;2.30;2.10;;;;;;;;;;5082739;28;20257;-70
2021/12/12 14:20:18;;;;;;;2.60;1.90;;;;;;;;;;5080104;28;20763;-71
2021/12/12 14:22:45;;;;;;;3.53;2.10;;;;;;;;;;5083730;28;20218;-68
2021/12/12 14:25:13;;;;;;;2.37;2.17;;;;;;;;;;5078295;28;20208;-69
2021/12/12 14:27:41;;;;;;;2.27;1.67;;;;;;;;;;5070477;28;20653;-69
2021/12/12 14:30:11;;;;;;;1.73;1.63;;;;;;;;;;5082926;28;20241;-69
2021/12/12 14:32:41;;;;;;;6.00;2.10;;;;;;;;;;5080557;28;20234;-69
2021/12/12 14:35:14;;;;;;;2.27;1.93;;;;;;;;;;5077916;28;20213;-69
2021/12/12 14:37:41;;;;;;;2.27;1.90;;;;;;;;;;5067290;28;20799;-70
2021/12/12 14:40:11;;;;;;;1.50;1.40;;;;;;;;;;5074560;28;20631;-70
2021/12/12 14:42:45;;;;;;;2.33;1.67;;;;;;;;;;5083074;28;20259;-70
2021/12/12 14:45:15;;;;;;;2.93;1.60;;;;;;;;;;5083762;28;20236;-69
2021/12/12 14:47:43;;;;;;;1.83;1.73;;;;;;;;;;5083848;28;20221;-70
2021/12/12 14:50:13;;;;;;;5.20;1.97;;;;;;;;;;5069049;28;20548;-70
2021/12/12 14:52:40;;;;;;;5.07;2.47;;;;;;;;;;5083851;28;20210;-70
2021/12/12 14:55:11;;;;;;;1.93;1.67;;;;;;;;;;5082804;28;20206;-71
2021/12/12 14:57:39;;;;;;;2.00;1.80;;;;;;;;;;5083377;28;20210;-71
2021/12/12 15:00:08;;;;;;;1.97;1.87;;;;;;;;;;5083940;28;20221;-71
2021/12/12 15:02:39;;;;;;;3.70;1.60;;;;;;;;;;5083467;28;20214;-71
2021/12/12 15:05:10;;;;;;;1.70;1.63;;;;;;;;;;5084149;28;20210;-70
2021/12/12 15:07:37;;;;;;;2.37;1.53;;;;;;;;;;5083653;28;20212;-70
2021/12/12 15:10:08;;;;;;;2.33;1.70;;;;;;;;;;5083824;28;20251;-70
2021/12/12 15:12:38;;;;;;;1.70;1.60;;;;;;;;;;5077044;28;20272;-70
2021/12/12 15:15:07;;;;;;;5.60;2.10;;;;;;;;;;5083439;28;20201;-70
2021/12/12 15:17:35;;;;;;;1.60;1.43;;;;;;;;;;5083222;28;20457;-71
2021/12/12 15:20:07;;;;;;;2.93;2.20;;;;;;;;;;5084284;28;20550;-71